Monday, June 25, 2018, 9:28 AM EDT
Back to Local

KPTW, Pottstown Limerick Airport

Location: Royersford, PA, United States Lat: 40.233
Local Time: 9:28 AM EDT (13:28 GMT) Lon: -75.55
Time Zone: US/Eastern Elev: 291 ft

Show me the last for .
Show Decoded

2018-06-25 08:54 METAR KPTW 251254Z AUTO 32008KT 9SM CLR 21/15 A3004 RMK AO2 SLP170 T02060150 =
2018-06-25 07:54 METAR KPTW 251154Z AUTO 32005KT 9SM CLR 20/15 A3004 RMK AO2 SLP167 70009
                 T02000150 10200 20178 51028 =
2018-06-25 06:54 METAR KPTW 251054Z AUTO 32007KT 9SM CLR 18/14 A3002 RMK AO2 SLP160 T01830144 =
2018-06-25 05:54 METAR KPTW 250954Z AUTO 34006KT 10SM CLR 18/15 A2999 RMK AO2 SLP151 T01780150 =
2018-06-25 04:54 METAR KPTW 250854Z AUTO 32011KT 10SM BKN030 19/15 A2995 RMK AO2 SLP138 T01890150
                 51020 =
2018-06-25 03:54 METAR KPTW 250754Z AUTO 30004KT 10SM SCT022 OVC029 19/17 A2993 RMK AO2 SLP132
                 T01890172 =
2018-06-25 03:23 METAR KPTW 250723Z AUTO 30003KT 9SM BKN025 18/17 A2992 RMK AO2 T01780172 =
2018-06-25 02:54 METAR KPTW 250654Z AUTO 32004KT 9SM CLR 18/17 A2992 RMK AO2 SLP126 T01780167 =
2018-06-25 01:54 METAR KPTW 250554Z AUTO 00000KT 10SM CLR 19/17 A2989 RMK AO2 SLP118 T01940167
                 10217 20189 53001 =
2018-06-25 00:54 METAR KPTW 250454Z AUTO VRB03KT 10SM CLR 19/17 A2989 RMK AO2 SLP116 T01940172
                 403000178 =
2018-06-24 23:54 METAR KPTW 250354Z AUTO 30004KT 10SM CLR 19/18 A2989 RMK AO2 SLP117 T01940183 =
2018-06-24 22:54 METAR KPTW 250254Z AUTO VRB03KT 9SM CLR 20/19 A2989 RMK AO2 SLP117 T02000189
                 52013 =
2018-06-24 21:54 METAR KPTW 250154Z AUTO VRB04KT 9SM CLR 22/19 A2988 RMK AO2 SLP115 T02170194 =
2018-06-24 20:54 METAR KPTW 250054Z AUTO 00000KT 7SM OVC080 22/21 A2986 RMK AO2 SLP107 T02170206
                 =
2018-06-24 19:54 METAR KPTW 242354Z AUTO 00000KT 8SM FEW060 21/20 A2985 RMK AO2 LTG DSNT E AND SE
                 RAE29 TSB10E25 SLP106 P0008 60009 T02110200 10300 20211 53015 =
2018-06-24 19:43 METAR KPTW 242343Z AUTO 00000KT 8SM SCT060 21/20 A2986 RMK AO2 LTG DSNT NE-S
                 RAE29 TSB10E25 P0008 T02110200 =
2018-06-24 19:31 METAR KPTW 242331Z AUTO 23003KT 9SM VCTS BKN060 BKN075 OVC100 21/21 A2985 RMK
                 AO2 LTG DSNT ALQDS RAE29 TSB10E25 P0008 T02110206 =
2018-06-24 19:10 METAR KPTW 242310Z AUTO 20009G18KT 3SM -TSRA BR SCT050 BKN070 OVC095 21/20 A2984
                 RMK AO2 LTG DSNT SW TSB10 P0008 T02110200 =
2018-06-24 18:58 METAR KPTW 242258Z AUTO 27007G24KT 1 3/4SM VCTS +RA BKN050 BKN070 OVC095 23/18
                 A2983 RMK AO2 LTG DSNT SW P0005 T02330178 =
2018-06-24 18:54 METAR KPTW 242254Z AUTO 31014G24KT 4SM VCTS RA SCT050 BKN060 OVC110 23/19 A2982
                 RMK AO2 LTG DSNT SW RAB49 SLP094 P0001 T02330194 =
2018-06-24 18:35 METAR KPTW 242235Z AUTO 24004KT 9SM VCTS SCT060 SCT075 BKN090 28/18 A2981 RMK
                 AO2 LTG DSNT W T02830178 =
2018-06-24 17:54 METAR KPTW 242154Z AUTO 26007KT 240V300 9SM SCT050 29/18 A2981 RMK AO2 LTG DSNT
                 W SLP089 T02890183 =
2018-06-24 16:54 METAR KPTW 242054Z AUTO VRB05G14KT 9SM BKN049 BKN080 29/17 A2981 RMK AO2 SLP089
                 T02890172 56013 =
2018-06-24 15:54 METAR KPTW 241954Z AUTO 24006KT 9SM FEW049 OVC065 28/18 A2982 RMK AO2 SLP094
                 T02830183 =
2018-06-24 14:54 METAR KPTW 241854Z AUTO 24007KT 8SM BKN044 BKN090 28/18 A2983 RMK AO2 SLP095
                 T02830183 =
2018-06-24 13:54 METAR KPTW 241754Z AUTO 26008G15KT 8SM FEW046 SCT095 28/18 A2985 RMK AO2 SLP102
                 T02830183 10283 20206 56006 =
2018-06-24 12:54 METAR KPTW 241654Z AUTO 25009G15KT 9SM FEW042 SCT050 28/18 A2985 RMK AO2 SLP105
                 T02780183 =
2018-06-24 11:54 METAR KPTW 241554Z AUTO 27007KT 9SM FEW032 27/19 A2986 RMK AO2 SLP105 T02670189
                 =
2018-06-24 10:54 METAR KPTW 241454Z AUTO 26007KT 230V300 8SM FEW031 26/19 A2987 RMK AO2 SLP108
                 T02560189 57001 =
2018-06-24 09:54 METAR KPTW 241354Z AUTO VRB05KT 8SM CLR 25/20 A2987 RMK AO2 SLP108 T02500200 =

Support USWX by starting your Amazon purchase here.